sensor_id;sensor_type;location;lat;lon;timestamp;temperature;humidity
53776;DHT22;44276;49.534;6.378;2023-04-24T00:00:31;9.60;99.90
53776;DHT22;44276;49.534;6.378;2023-04-24T00:03:00;9.50;99.90
53776;DHT22;44276;49.534;6.378;2023-04-24T00:05:28;9.50;99.90
53776;DHT22;44276;49.534;6.378;2023-04-24T00:07:56;9.50;99.90
53776;DHT22;44276;49.534;6.378;2023-04-24T00:10:24;9.50;99.90
53776;DHT22;44276;49.534;6.378;2023-04-24T00:12:54;9.50;99.90
53776;DHT22;44276;49.534;6.378;2023-04-24T00:15:22;9.50;99.90
53776;DHT22;44276;49.534;6.378;2023-04-24T00:17:50;9.50;99.90
53776;DHT22;44276;49.534;6.378;2023-04-24T00:20:20;9.50;99.90
53776;DHT22;44276;49.534;6.378;2023-04-24T00:22:49;9.50;99.90
53776;DHT22;44276;49.534;6.378;2023-04-24T00:25:17;9.60;99.90
53776;DHT22;44276;49.534;6.378;2023-04-24T00:27:45;9.60;99.90
53776;DHT22;44276;49.534;6.378;2023-04-24T00:30:15;9.60;99.90
53776;DHT22;44276;49.534;6.378;2023-04-24T00:32:43;9.60;99.90
53776;DHT22;44276;49.534;6.378;2023-04-24T00:35:11;9.60;99.90
53776;DHT22;44276;49.534;6.378;2023-04-24T00:37:39;9.60;99.90
53776;DHT22;44276;49.534;6.378;2023-04-24T00:40:08;9.60;99.90
53776;DHT22;44276;49.534;6.378;2023-04-24T00:42:37;9.60;99.90
53776;DHT22;44276;49.534;6.378;2023-04-24T00:45:07;9.70;99.90
53776;DHT22;44276;49.534;6.378;2023-04-24T00:47:37;9.50;99.90
53776;DHT22;44276;49.534;6.378;2023-04-24T00:50:07;9.50;99.90
53776;DHT22;44276;49.534;6.378;2023-04-24T00:52:36;9.50;99.90
53776;DHT22;44276;49.534;6.378;2023-04-24T00:55:08;9.50;99.90
53776;DHT22;44276;49.534;6.378;2023-04-24T00:57:37;9.50;99.90
53776;DHT22;44276;49.534;6.378;2023-04-24T01:00:06;9.50;99.90
53776;DHT22;44276;49.534;6.378;2023-04-24T01:02:40;9.50;99.90
53776;DHT22;44276;49.534;6.378;2023-04-24T01:05:11;9.50;99.90
53776;DHT22;44276;49.534;6.378;2023-04-24T01:07:41;9.40;99.90
53776;DHT22;44276;49.534;6.378;2023-04-24T01:10:14;9.40;99.90
53776;DHT22;44276;49.534;6.378;2023-04-24T01:12:43;9.30;99.90
53776;DHT22;44276;49.534;6.378;2023-04-24T01:15:11;9.30;99.90
53776;DHT22;44276;49.534;6.378;2023-04-24T01:17:41;9.20;99.90
53776;DHT22;44276;49.534;6.378;2023-04-24T01:20:10;9.10;99.90
53776;DHT22;44276;49.534;6.378;2023-04-24T01:22:39;9.00;99.90
53776;DHT22;44276;49.534;6.378;2023-04-24T01:25:08;8.90;99.90
53776;DHT22;44276;49.534;6.378;2023-04-24T01:27:37;8.90;99.90
53776;DHT22;44276;49.534;6.378;2023-04-24T01:30:06;8.70;99.90
53776;DHT22;44276;49.534;6.378;2023-04-24T01:32:36;8.60;99.90
53776;DHT22;44276;49.534;6.378;2023-04-24T01:35:06;8.50;99.90
53776;DHT22;44276;49.534;6.378;2023-04-24T01:37:35;8.50;99.90
53776;DHT22;44276;49.534;6.378;2023-04-24T01:40:07;8.40;99.90
53776;DHT22;44276;49.534;6.378;2023-04-24T01:42:35;8.40;99.90
53776;DHT22;44276;49.534;6.378;2023-04-24T01:45:05;8.50;99.90
53776;DHT22;44276;49.534;6.378;2023-04-24T01:47:34;8.40;99.90
53776;DHT22;44276;49.534;6.378;2023-04-24T01:50:02;8.40;99.90
53776;DHT22;44276;49.534;6.378;2023-04-24T01:52:32;8.30;99.90
53776;DHT22;44276;49.534;6.378;2023-04-24T01:55:02;8.20;99.90
53776;DHT22;44276;49.534;6.378;2023-04-24T01:57:32;8.20;99.90
53776;DHT22;44276;49.534;6.378;2023-04-24T02:00:02;8.20;99.90
53776;DHT22;44276;49.534;6.378;2023-04-24T02:02:32;8.10;99.90
53776;DHT22;44276;49.534;6.378;2023-04-24T02:05:00;8.00;99.90
53776;DHT22;44276;49.534;6.378;2023-04-24T02:07:29;8.00;99.90
53776;DHT22;44276;49.534;6.378;2023-04-24T02:09:57;8.10;99.90
53776;DHT22;44276;49.534;6.378;2023-04-24T02:12:26;8.20;99.90
53776;DHT22;44276;49.534;6.378;2023-04-24T02:14:55;8.20;99.90
53776;DHT22;44276;49.534;6.378;2023-04-24T02:17:23;8.00;99.90
53776;DHT22;44276;49.534;6.378;2023-04-24T02:19:52;7.80;99.90
53776;DHT22;44276;49.534;6.378;2023-04-24T02:22:20;7.70;99.90
53776;DHT22;44276;49.534;6.378;2023-04-24T02:24:48;7.70;99.90
53776;DHT22;44276;49.534;6.378;2023-04-24T02:27:16;7.70;99.90
53776;DHT22;44276;49.534;6.378;2023-04-24T02:29:44;7.70;99.90
53776;DHT22;44276;49.534;6.378;2023-04-24T02:32:14;7.70;99.90
53776;DHT22;44276;49.534;6.378;2023-04-24T02:34:42;7.70;99.90
53776;DHT22;44276;49.534;6.378;2023-04-24T02:37:11;7.50;99.90
53776;DHT22;44276;49.534;6.378;2023-04-24T02:39:39;7.50;99.90
53776;DHT22;44276;49.534;6.378;2023-04-24T02:42:07;7.60;99.90
53776;DHT22;44276;49.534;6.378;2023-04-24T02:44:35;7.80;99.90
53776;DHT22;44276;49.534;6.378;2023-04-24T02:47:03;7.90;99.90
53776;DHT22;44276;49.534;6.378;2023-04-24T02:49:33;8.00;99.90
53776;DHT22;44276;49.534;6.378;2023-04-24T02:52:01;8.20;99.90
53776;DHT22;44276;49.534;6.378;2023-04-24T02:54:29;8.20;99.90
53776;DHT22;44276;49.534;6.378;2023-04-24T02:56:57;8.20;99.90
53776;DHT22;44276;49.534;6.378;2023-04-24T02:59:25;8.20;99.90
53776;DHT22;44276;49.534;6.378;2023-04-24T03:01:55;8.20;99.90
53776;DHT22;44276;49.534;6.378;2023-04-24T03:04:23;8.10;99.90
53776;DHT22;44276;49.534;6.378;2023-04-24T03:06:53;8.10;99.90
53776;DHT22;44276;49.534;6.378;2023-04-24T03:09:22;8.00;99.90
53776;DHT22;44276;49.534;6.378;2023-04-24T03:11:51;8.00;99.90
53776;DHT22;44276;49.534;6.378;2023-04-24T03:14:19;8.00;99.90
53776;DHT22;44276;49.534;6.378;2023-04-24T03:16:47;8.00;99.90
53776;DHT22;44276;49.534;6.378;2023-04-24T03:19:15;7.90;99.90
53776;DHT22;44276;49.534;6.378;2023-04-24T03:21:43;7.80;99.90
53776;DHT22;44276;49.534;6.378;2023-04-24T03:24:13;7.80;99.90
53776;DHT22;44276;49.534;6.378;2023-04-24T03:26:41;7.90;99.90
53776;DHT22;44276;49.534;6.378;2023-04-24T03:29:09;7.80;99.90
53776;DHT22;44276;49.534;6.378;2023-04-24T03:31:37;7.90;99.90
53776;DHT22;44276;49.534;6.378;2023-04-24T03:34:05;7.90;99.90
53776;DHT22;44276;49.534;6.378;2023-04-24T03:36:33;8.00;99.90
53776;DHT22;44276;49.534;6.378;2023-04-24T03:39:01;8.00;99.90
53776;DHT22;44276;49.534;6.378;2023-04-24T03:41:31;8.00;99.90
53776;DHT22;44276;49.534;6.378;2023-04-24T03:43:59;8.00;99.90
53776;DHT22;44276;49.534;6.378;2023-04-24T03:46:27;8.00;99.90
53776;DHT22;44276;49.534;6.378;2023-04-24T03:48:56;8.10;99.90
53776;DHT22;44276;49.534;6.378;2023-04-24T03:51:24;8.00;99.90
53776;DHT22;44276;49.534;6.378;2023-04-24T03:53:54;8.10;99.90
53776;DHT22;44276;49.534;6.378;2023-04-24T03:56:22;8.10;99.90
53776;DHT22;44276;49.534;6.378;2023-04-24T03:58:52;8.10;99.90
53776;DHT22;44276;49.534;6.378;2023-04-24T04:01:20;8.10;99.90
53776;DHT22;44276;49.534;6.378;2023-04-24T04:03:48;8.10;99.90
53776;DHT22;44276;49.534;6.378;2023-04-24T04:06:16;8.10;99.90
53776;DHT22;44276;49.534;6.378;2023-04-24T04:08:46;8.20;99.90
53776;DHT22;44276;49.534;6.378;2023-04-24T04:11:14;8.10;99.90
53776;DHT22;44276;49.534;6.378;2023-04-24T04:13:42;8.10;99.90
53776;DHT22;44276;49.534;6.378;2023-04-24T04:16:11;8.00;99.90
53776;DHT22;44276;49.534;6.378;2023-04-24T04:18:39;8.00;99.90
53776;DHT22;44276;49.534;6.378;2023-04-24T04:21:07;8.00;99.90
53776;DHT22;44276;49.534;6.378;2023-04-24T04:23:35;8.00;99.90
53776;DHT22;44276;49.534;6.378;2023-04-24T04:26:04;8.00;99.90
53776;DHT22;44276;49.534;6.378;2023-04-24T04:28:32;8.10;99.90
53776;DHT22;44276;49.534;6.378;2023-04-24T04:31:00;8.10;99.90
53776;DHT22;44276;49.534;6.378;2023-04-24T04:33:29;8.10;99.90
53776;DHT22;44276;49.534;6.378;2023-04-24T04:35:58;8.20;99.90
53776;DHT22;44276;49.534;6.378;2023-04-24T04:38:29;8.20;99.90
53776;DHT22;44276;49.534;6.378;2023-04-24T04:40:57;8.20;99.90
53776;DHT22;44276;49.534;6.378;2023-04-24T04:43:26;8.20;99.90
53776;DHT22;44276;49.534;6.378;2023-04-24T04:45:54;8.20;99.90
53776;DHT22;44276;49.534;6.378;2023-04-24T04:48:22;8.40;99.90
53776;DHT22;44276;49.534;6.378;2023-04-24T04:50:52;8.20;99.90
53776;DHT22;44276;49.534;6.378;2023-04-24T04:53:20;8.20;99.90
53776;DHT22;44276;49.534;6.378;2023-04-24T04:55:48;8.30;99.90
53776;DHT22;44276;49.534;6.378;2023-04-24T04:58:17;8.20;99.90
53776;DHT22;44276;49.534;6.378;2023-04-24T05:00:45;8.30;99.90
53776;DHT22;44276;49.534;6.378;2023-04-24T05:03:13;8.30;99.90
53776;DHT22;44276;49.534;6.378;2023-04-24T05:05:47;8.40;99.90
53776;DHT22;44276;49.534;6.378;2023-04-24T05:08:17;8.50;99.90
53776;DHT22;44276;49.534;6.378;2023-04-24T05:10:53;8.30;99.90
53776;DHT22;44276;49.534;6.378;2023-04-24T05:13:22;8.40;99.90
53776;DHT22;44276;49.534;6.378;2023-04-24T05:16:04;8.20;99.90
53776;DHT22;44276;49.534;6.378;2023-04-24T05:18:33;8.40;99.90
53776;DHT22;44276;49.534;6.378;2023-04-24T05:21:01;8.50;99.90
53776;DHT22;44276;49.534;6.378;2023-04-24T05:23:31;8.70;99.90
53776;DHT22;44276;49.534;6.378;2023-04-24T05:26:01;8.70;99.90
53776;DHT22;44276;49.534;6.378;2023-04-24T05:28:33;8.60;99.90
53776;DHT22;44276;49.534;6.378;2023-04-24T05:31:03;8.60;99.90
53776;DHT22;44276;49.534;6.378;2023-04-24T05:33:32;8.50;99.90
53776;DHT22;44276;49.534;6.378;2023-04-24T05:36:00;8.50;99.90
53776;DHT22;44276;49.534;6.378;2023-04-24T05:38:28;8.60;99.90
53776;DHT22;44276;49.534;6.378;2023-04-24T05:40:58;8.60;99.90
53776;DHT22;44276;49.534;6.378;2023-04-24T05:43:27;8.70;99.90
53776;DHT22;44276;49.534;6.378;2023-04-24T05:45:55;8.70;99.90
53776;DHT22;44276;49.534;6.378;2023-04-24T05:48:23;8.70;99.90
53776;DHT22;44276;49.534;6.378;2023-04-24T05:50:52;8.60;99.90
53776;DHT22;44276;49.534;6.378;2023-04-24T05:53:20;8.60;99.90
53776;DHT22;44276;49.534;6.378;2023-04-24T05:55:48;8.60;99.90
53776;DHT22;44276;49.534;6.378;2023-04-24T05:58:18;8.60;99.90
53776;DHT22;44276;49.534;6.378;2023-04-24T06:00:46;8.70;99.90
53776;DHT22;44276;49.534;6.378;2023-04-24T06:03:14;8.80;99.90
53776;DHT22;44276;49.534;6.378;2023-04-24T06:05:43;8.80;99.90
53776;DHT22;44276;49.534;6.378;2023-04-24T06:08:11;8.70;99.90
53776;DHT22;44276;49.534;6.378;2023-04-24T06:10:39;8.60;99.90
53776;DHT22;44276;49.534;6.378;2023-04-24T06:13:08;8.60;99.90
53776;DHT22;44276;49.534;6.378;2023-04-24T06:15:37;8.50;99.90
53776;DHT22;44276;49.534;6.378;2023-04-24T06:18:06;8.50;99.90
53776;DHT22;44276;49.534;6.378;2023-04-24T06:20:34;8.40;99.90
53776;DHT22;44276;49.534;6.378;2023-04-24T06:23:02;8.40;99.90
53776;DHT22;44276;49.534;6.378;2023-04-24T06:25:31;8.60;99.90
53776;DHT22;44276;49.534;6.378;2023-04-24T06:28:00;8.50;99.90
53776;DHT22;44276;49.534;6.378;2023-04-24T06:30:28;8.50;99.90
53776;DHT22;44276;49.534;6.378;2023-04-24T06:32:58;8.50;99.90
53776;DHT22;44276;49.534;6.378;2023-04-24T06:35:38;8.60;99.90
53776;DHT22;44276;49.534;6.378;2023-04-24T06:38:07;8.80;99.90
53776;DHT22;44276;49.534;6.378;2023-04-24T06:40:35;8.70;99.90
53776;DHT22;44276;49.534;6.378;2023-04-24T06:43:06;8.70;99.90
53776;DHT22;44276;49.534;6.378;2023-04-24T06:45:34;8.60;99.90
53776;DHT22;44276;49.534;6.378;2023-04-24T06:48:04;8.70;99.90
53776;DHT22;44276;49.534;6.378;2023-04-24T06:50:32;8.60;99.90
53776;DHT22;44276;49.534;6.378;2023-04-24T06:53:02;8.50;99.90
53776;DHT22;44276;49.534;6.378;2023-04-24T06:55:30;8.40;99.90
53776;DHT22;44276;49.534;6.378;2023-04-24T06:57:58;8.40;99.90
53776;DHT22;44276;49.534;6.378;2023-04-24T07:00:26;8.40;99.90
53776;DHT22;44276;49.534;6.378;2023-04-24T07:02:56;8.50;99.90
53776;DHT22;44276;49.534;6.378;2023-04-24T07:05:26;8.60;99.90
53776;DHT22;44276;49.534;6.378;2023-04-24T07:07:54;8.70;99.90
53776;DHT22;44276;49.534;6.378;2023-04-24T07:10:24;8.70;99.90
53776;DHT22;44276;49.534;6.378;2023-04-24T07:12:55;8.70;99.90
53776;DHT22;44276;49.534;6.378;2023-04-24T07:15:23;8.70;99.90
53776;DHT22;44276;49.534;6.378;2023-04-24T07:17:51;8.70;99.90
53776;DHT22;44276;49.534;6.378;2023-04-24T07:20:20;8.70;99.90
53776;DHT22;44276;49.534;6.378;2023-04-24T07:22:49;8.70;99.90
53776;DHT22;44276;49.534;6.378;2023-04-24T07:25:18;8.60;99.90
53776;DHT22;44276;49.534;6.378;2023-04-24T07:27:47;8.40;99.90
53776;DHT22;44276;49.534;6.378;2023-04-24T07:30:15;8.30;99.90
53776;DHT22;44276;49.534;6.378;2023-04-24T07:32:44;8.30;99.90
53776;DHT22;44276;49.534;6.378;2023-04-24T07:35:13;8.30;99.90
53776;DHT22;44276;49.534;6.378;2023-04-24T07:37:41;8.40;99.90
53776;DHT22;44276;49.534;6.378;2023-04-24T07:40:14;8.60;99.90
53776;DHT22;44276;49.534;6.378;2023-04-24T07:42:44;8.60;99.90
53776;DHT22;44276;49.534;6.378;2023-04-24T07:45:15;8.60;99.90
53776;DHT22;44276;49.534;6.378;2023-04-24T07:47:44;8.60;99.90
53776;DHT22;44276;49.534;6.378;2023-04-24T07:50:13;8.70;99.90
53776;DHT22;44276;49.534;6.378;2023-04-24T07:52:41;8.70;99.90
53776;DHT22;44276;49.534;6.378;2023-04-24T07:55:09;8.70;99.90
53776;DHT22;44276;49.534;6.378;2023-04-24T07:57:39;8.80;99.90
53776;DHT22;44276;49.534;6.378;2023-04-24T08:00:09;8.90;99.90
53776;DHT22;44276;49.534;6.378;2023-04-24T08:02:38;9.00;99.90
53776;DHT22;44276;49.534;6.378;2023-04-24T08:05:08;9.10;99.90
53776;DHT22;44276;49.534;6.378;2023-04-24T08:07:38;9.30;99.90
53776;DHT22;44276;49.534;6.378;2023-04-24T08:10:10;9.30;99.90
53776;DHT22;44276;49.534;6.378;2023-04-24T08:12:41;9.40;99.90
53776;DHT22;44276;49.534;6.378;2023-04-24T08:15:10;9.40;99.90
53776;DHT22;44276;49.534;6.378;2023-04-24T08:17:39;9.30;99.90
53776;DHT22;44276;49.534;6.378;2023-04-24T08:20:10;9.10;99.90
53776;DHT22;44276;49.534;6.378;2023-04-24T08:22:40;9.00;99.90
53776;DHT22;44276;49.534;6.378;2023-04-24T08:25:09;8.90;99.90
53776;DHT22;44276;49.534;6.378;2023-04-24T08:27:40;8.80;99.90
53776;DHT22;44276;49.534;6.378;2023-04-24T08:30:08;8.70;99.90
53776;DHT22;44276;49.534;6.378;2023-04-24T08:32:37;8.70;99.90
53776;DHT22;44276;49.534;6.378;2023-04-24T08:35:06;8.80;99.90
53776;DHT22;44276;49.534;6.378;2023-04-24T08:37:36;8.80;99.90
53776;DHT22;44276;49.534;6.378;2023-04-24T08:40:08;8.90;99.90
53776;DHT22;44276;49.534;6.378;2023-04-24T08:42:43;9.00;99.90
53776;DHT22;44276;49.534;6.378;2023-04-24T08:45:12;8.90;99.90
53776;DHT22;44276;49.534;6.378;2023-04-24T08:47:42;8.90;99.90
53776;DHT22;44276;49.534;6.378;2023-04-24T08:50:11;8.90;99.90
53776;DHT22;44276;49.534;6.378;2023-04-24T08:52:39;9.00;99.90
53776;DHT22;44276;49.534;6.378;2023-04-24T08:55:09;9.20;99.90
53776;DHT22;44276;49.534;6.378;2023-04-24T08:57:37;9.50;99.90
53776;DHT22;44276;49.534;6.378;2023-04-24T09:00:09;9.80;99.90
53776;DHT22;44276;49.534;6.378;2023-04-24T09:02:42;10.30;99.90
53776;DHT22;44276;49.534;6.378;2023-04-24T09:05:12;10.60;99.90
53776;DHT22;44276;49.534;6.378;2023-04-24T09:07:43;10.90;99.90
53776;DHT22;44276;49.534;6.378;2023-04-24T09:10:15;12.30;95.80
53776;DHT22;44276;49.534;6.378;2023-04-24T09:12:44;13.90;57.40
53776;DHT22;44276;49.534;6.378;2023-04-24T09:15:15;14.50;47.00
53776;DHT22;44276;49.534;6.378;2023-04-24T09:17:43;15.00;41.90
53776;DHT22;44276;49.534;6.378;2023-04-24T09:20:12;15.50;40.90
53776;DHT22;44276;49.534;6.378;2023-04-24T09:22:42;16.20;39.20
53776;DHT22;44276;49.534;6.378;2023-04-24T09:25:11;15.90;35.90
53776;DHT22;44276;49.534;6.378;2023-04-24T09:27:45;15.60;35.60
53776;DHT22;44276;49.534;6.378;2023-04-24T09:30:21;15.10;36.00
53776;DHT22;44276;49.534;6.378;2023-04-24T09:33:10;14.00;39.30
53776;DHT22;44276;49.534;6.378;2023-04-24T09:35:41;13.50;41.10
53776;DHT22;44276;49.534;6.378;2023-04-24T09:38:10;12.80;47.80
53776;DHT22;44276;49.534;6.378;2023-04-24T09:40:39;12.80;52.60
53776;DHT22;44276;49.534;6.378;2023-04-24T09:43:10;12.90;51.60
53776;DHT22;44276;49.534;6.378;2023-04-24T09:45:40;12.80;47.80
53776;DHT22;44276;49.534;6.378;2023-04-24T09:48:09;12.30;54.70
53776;DHT22;44276;49.534;6.378;2023-04-24T09:50:38;12.70;53.80
53776;DHT22;44276;49.534;6.378;2023-04-24T09:53:06;12.80;44.90
53776;DHT22;44276;49.534;6.378;2023-04-24T09:55:39;12.50;48.40
53776;DHT22;44276;49.534;6.378;2023-04-24T09:58:12;12.60;60.00
53776;DHT22;44276;49.534;6.378;2023-04-24T10:00:42;12.40;53.80
53776;DHT22;44276;49.534;6.378;2023-04-24T10:03:12;12.00;61.80
53776;DHT22;44276;49.534;6.378;2023-04-24T10:05:40;12.10;64.50
53776;DHT22;44276;49.534;6.378;2023-04-24T10:08:11;12.30;64.70
53776;DHT22;44276;49.534;6.378;2023-04-24T10:10:42;12.60;60.90
53776;DHT22;44276;49.534;6.378;2023-04-24T10:13:14;12.40;56.00
53776;DHT22;44276;49.534;6.378;2023-04-24T10:15:44;12.30;65.50
53776;DHT22;44276;49.534;6.378;2023-04-24T10:18:13;12.20;59.80
53776;DHT22;44276;49.534;6.378;2023-04-24T10:20:41;12.10;64.80
53776;DHT22;44276;49.534;6.378;2023-04-24T10:23:11;12.30;54.00
53776;DHT22;44276;49.534;6.378;2023-04-24T10:25:40;12.30;63.00
53776;DHT22;44276;49.534;6.378;2023-04-24T10:28:09;12.40;58.60
53776;DHT22;44276;49.534;6.378;2023-04-24T10:30:39;12.20;55.80
53776;DHT22;44276;49.534;6.378;2023-04-24T10:33:13;12.30;54.80
53776;DHT22;44276;49.534;6.378;2023-04-24T10:35:44;12.40;49.30
53776;DHT22;44276;49.534;6.378;2023-04-24T10:38:18;12.70;47.40
53776;DHT22;44276;49.534;6.378;2023-04-24T10:40:57;13.10;48.40
53776;DHT22;44276;49.534;6.378;2023-04-24T10:43:34;13.80;39.80
53776;DHT22;44276;49.534;6.378;2023-04-24T10:46:05;13.90;38.40
53776;DHT22;44276;49.534;6.378;2023-04-24T10:48:34;13.70;41.60
53776;DHT22;44276;49.534;6.378;2023-04-24T10:51:03;13.80;40.10
53776;DHT22;44276;49.534;6.378;2023-04-24T10:53:35;13.90;42.40
53776;DHT22;44276;49.534;6.378;2023-04-24T10:56:04;13.70;39.30
53776;DHT22;44276;49.534;6.378;2023-04-24T10:58:37;13.30;38.20
53776;DHT22;44276;49.534;6.378;2023-04-24T11:01:08;12.90;38.10
53776;DHT22;44276;49.534;6.378;2023-04-24T11:03:37;12.80;43.00
53776;DHT22;44276;49.534;6.378;2023-04-24T11:06:09;13.10;36.60
53776;DHT22;44276;49.534;6.378;2023-04-24T11:08:38;13.10;40.30
53776;DHT22;44276;49.534;6.378;2023-04-24T11:11:11;13.20;39.60
53776;DHT22;44276;49.534;6.378;2023-04-24T11:14:05;13.60;35.90
53776;DHT22;44276;49.534;6.378;2023-04-24T11:16:44;14.20;34.10
53776;DHT22;44276;49.534;6.378;2023-04-24T11:19:22;14.80;32.80
53776;DHT22;44276;49.534;6.378;2023-04-24T11:22:01;14.80;32.80
53776;DHT22;44276;49.534;6.378;2023-04-24T11:24:37;14.30;34.40
53776;DHT22;44276;49.534;6.378;2023-04-24T11:27:12;14.40;32.20
53776;DHT22;44276;49.534;6.378;2023-04-24T11:29:43;14.30;32.90
53776;DHT22;44276;49.534;6.378;2023-04-24T11:32:27;14.10;34.60
53776;DHT22;44276;49.534;6.378;2023-04-24T11:34:58;14.10;34.30
53776;DHT22;44276;49.534;6.378;2023-04-24T11:37:29;14.50;33.40
53776;DHT22;44276;49.534;6.378;2023-04-24T11:40:03;14.90;30.90
53776;DHT22;44276;49.534;6.378;2023-04-24T11:42:36;15.20;29.20
53776;DHT22;44276;49.534;6.378;2023-04-24T11:45:09;15.50;30.00
53776;DHT22;44276;49.534;6.378;2023-04-24T11:47:41;16.30;28.80
53776;DHT22;44276;49.534;6.378;2023-04-24T11:50:12;16.50;26.60
53776;DHT22;44276;49.534;6.378;2023-04-24T11:52:44;17.40;25.70
53776;DHT22;44276;49.534;6.378;2023-04-24T11:55:24;17.30;25.40
53776;DHT22;44276;49.534;6.378;2023-04-24T11:57:55;17.30;25.60
53776;DHT22;44276;49.534;6.378;2023-04-24T12:00:25;17.40;23.70
53776;DHT22;44276;49.534;6.378;2023-04-24T12:03:06;17.20;25.30
53776;DHT22;44276;49.534;6.378;2023-04-24T12:05:35;16.80;25.90
53776;DHT22;44276;49.534;6.378;2023-04-24T12:08:05;16.30;25.00
53776;DHT22;44276;49.534;6.378;2023-04-24T12:10:34;15.80;25.30
53776;DHT22;44276;49.534;6.378;2023-04-24T12:13:03;15.70;26.60
53776;DHT22;44276;49.534;6.378;2023-04-24T12:15:32;15.70;26.70
53776;DHT22;44276;49.534;6.378;2023-04-24T12:18:01;15.20;25.50
53776;DHT22;44276;49.534;6.378;2023-04-24T12:20:35;15.20;26.40
53776;DHT22;44276;49.534;6.378;2023-04-24T12:23:03;15.00;27.40
53776;DHT22;44276;49.534;6.378;2023-04-24T12:25:32;15.10;27.80
53776;DHT22;44276;49.534;6.378;2023-04-24T12:28:09;15.60;25.60
53776;DHT22;44276;49.534;6.378;2023-04-24T12:30:41;16.00;25.00
53776;DHT22;44276;49.534;6.378;2023-04-24T12:33:11;16.10;25.80
53776;DHT22;44276;49.534;6.378;2023-04-24T12:35:42;16.90;23.30
53776;DHT22;44276;49.534;6.378;2023-04-24T12:38:13;16.40;24.70
53776;DHT22;44276;49.534;6.378;2023-04-24T12:40:44;16.10;25.60
53776;DHT22;44276;49.534;6.378;2023-04-24T12:43:14;16.00;25.20
53776;DHT22;44276;49.534;6.378;2023-04-24T12:45:46;15.80;26.20
53776;DHT22;44276;49.534;6.378;2023-04-24T12:48:19;15.00;27.00
53776;DHT22;44276;49.534;6.378;2023-04-24T12:50:50;14.80;28.60
53776;DHT22;44276;49.534;6.378;2023-04-24T12:53:18;14.90;29.00
53776;DHT22;44276;49.534;6.378;2023-04-24T12:55:48;14.90;27.80
53776;DHT22;44276;49.534;6.378;2023-04-24T12:58:19;15.10;26.30
53776;DHT22;44276;49.534;6.378;2023-04-24T13:00:48;15.00;27.20
53776;DHT22;44276;49.534;6.378;2023-04-24T13:03:18;14.50;28.10
53776;DHT22;44276;49.534;6.378;2023-04-24T13:05:51;14.10;28.90
53776;DHT22;44276;49.534;6.378;2023-04-24T13:08:29;14.00;31.00
53776;DHT22;44276;49.534;6.378;2023-04-24T13:10:59;13.60;31.10
53776;DHT22;44276;49.534;6.378;2023-04-24T13:13:28;13.30;34.00
53776;DHT22;44276;49.534;6.378;2023-04-24T13:15:56;13.10;35.60
53776;DHT22;44276;49.534;6.378;2023-04-24T13:18:28;12.60;51.70
53776;DHT22;44276;49.534;6.378;2023-04-24T13:20:59;12.10;73.30
53776;DHT22;44276;49.534;6.378;2023-04-24T13:23:27;11.70;88.90
53776;DHT22;44276;49.534;6.378;2023-04-24T13:25:56;11.60;99.90
53776;DHT22;44276;49.534;6.378;2023-04-24T13:28:25;11.70;92.50
53776;DHT22;44276;49.534;6.378;2023-04-24T13:30:53;12.00;85.80
53776;DHT22;44276;49.534;6.378;2023-04-24T13:33:21;12.20;74.10
53776;DHT22;44276;49.534;6.378;2023-04-24T13:35:49;12.70;61.70
53776;DHT22;44276;49.534;6.378;2023-04-24T13:38:18;13.20;55.10
53776;DHT22;44276;49.534;6.378;2023-04-24T13:40:48;13.70;45.50
53776;DHT22;44276;49.534;6.378;2023-04-24T13:43:16;15.10;41.70
53776;DHT22;44276;49.534;6.378;2023-04-24T13:45:46;16.30;30.20
53776;DHT22;44276;49.534;6.378;2023-04-24T13:48:14;16.70;30.60
53776;DHT22;44276;49.534;6.378;2023-04-24T13:50:46;17.00;27.20
53776;DHT22;44276;49.534;6.378;2023-04-24T13:53:37;16.90;27.90
53776;DHT22;44276;49.534;6.378;2023-04-24T13:56:09;17.20;25.50
53776;DHT22;44276;49.534;6.378;2023-04-24T13:58:39;17.80;24.60
53776;DHT22;44276;49.534;6.378;2023-04-24T14:01:07;17.40;24.50
53776;DHT22;44276;49.534;6.378;2023-04-24T14:03:37;16.50;26.20
53776;DHT22;44276;49.534;6.378;2023-04-24T14:06:06;15.80;29.00
53776;DHT22;44276;49.534;6.378;2023-04-24T14:08:34;15.20;30.70
53776;DHT22;44276;49.534;6.378;2023-04-24T14:11:04;15.40;31.90
53776;DHT22;44276;49.534;6.378;2023-04-24T14:13:32;15.40;32.40
53776;DHT22;44276;49.534;6.378;2023-04-24T14:16:00;15.20;35.10
53776;DHT22;44276;49.534;6.378;2023-04-24T14:18:29;14.90;40.20
53776;DHT22;44276;49.534;6.378;2023-04-24T14:20:57;14.80;39.30
53776;DHT22;44276;49.534;6.378;2023-04-24T14:23:26;14.50;41.80
53776;DHT22;44276;49.534;6.378;2023-04-24T14:25:54;14.50;41.10
53776;DHT22;44276;49.534;6.378;2023-04-24T14:28:24;14.60;43.20
53776;DHT22;44276;49.534;6.378;2023-04-24T14:30:53;14.30;44.00
53776;DHT22;44276;49.534;6.378;2023-04-24T14:33:21;14.00;44.00
53776;DHT22;44276;49.534;6.378;2023-04-24T14:35:50;13.90;49.40
53776;DHT22;44276;49.534;6.378;2023-04-24T14:38:22;13.70;54.40
53776;DHT22;44276;49.534;6.378;2023-04-24T14:40:52;13.70;53.30
53776;DHT22;44276;49.534;6.378;2023-04-24T14:43:25;13.40;53.60
53776;DHT22;44276;49.534;6.378;2023-04-24T14:45:54;13.30;57.10
53776;DHT22;44276;49.534;6.378;2023-04-24T14:48:22;12.90;58.50
53776;DHT22;44276;49.534;6.378;2023-04-24T14:50:51;12.60;60.20
53776;DHT22;44276;49.534;6.378;2023-04-24T14:53:19;12.50;61.90
53776;DHT22;44276;49.534;6.378;2023-04-24T14:55:47;12.40;66.30
53776;DHT22;44276;49.534;6.378;2023-04-24T14:58:15;12.50;58.20
53776;DHT22;44276;49.534;6.378;2023-04-24T15:00:45;12.50;42.20
53776;DHT22;44276;49.534;6.378;2023-04-24T15:03:16;12.40;41.60
53776;DHT22;44276;49.534;6.378;2023-04-24T15:05:44;12.40;43.10
53776;DHT22;44276;49.534;6.378;2023-04-24T15:08:13;12.30;44.40
53776;DHT22;44276;49.534;6.378;2023-04-24T15:10:41;12.00;59.10
53776;DHT22;44276;49.534;6.378;2023-04-24T15:13:10;11.30;98.60
53776;DHT22;44276;49.534;6.378;2023-04-24T15:15:38;10.60;99.90
53776;DHT22;44276;49.534;6.378;2023-04-24T15:18:08;10.30;99.90
53776;DHT22;44276;49.534;6.378;2023-04-24T15:20:39;10.20;99.90
53776;DHT22;44276;49.534;6.378;2023-04-24T15:23:08;10.30;99.90
53776;DHT22;44276;49.534;6.378;2023-04-24T15:25:37;10.30;99.90
53776;DHT22;44276;49.534;6.378;2023-04-24T15:28:09;10.30;99.90
53776;DHT22;44276;49.534;6.378;2023-04-24T15:30:37;10.20;99.90
53776;DHT22;44276;49.534;6.378;2023-04-24T15:33:06;10.20;99.90
53776;DHT22;44276;49.534;6.378;2023-04-24T15:35:38;10.20;99.90
53776;DHT22;44276;49.534;6.378;2023-04-24T15:38:06;10.20;99.90
53776;DHT22;44276;49.534;6.378;2023-04-24T15:40:35;10.20;99.90
53776;DHT22;44276;49.534;6.378;2023-04-24T15:43:04;10.30;99.90
53776;DHT22;44276;49.534;6.378;2023-04-24T15:45:38;10.40;99.90
53776;DHT22;44276;49.534;6.378;2023-04-24T15:48:08;10.50;99.90
53776;DHT22;44276;49.534;6.378;2023-04-24T15:50:36;10.70;99.90
53776;DHT22;44276;49.534;6.378;2023-04-24T15:53:05;10.90;99.90
53776;DHT22;44276;49.534;6.378;2023-04-24T15:55:34;11.10;99.90